Time;durP1;ratioP1;P1;durP2;ratioP2;P2;SDS_P1;SDS_P2;PMS_P1;PMS_P2;Temp;Humidity;BMP_temperature;BMP_pressure;BME280_temperature;BME280_humidity;BME280_pressure;Samples;Min_cycle;Max_cycle;Signal;HPM_P1;HPM_P2
2022/03/30 00:01:31;;;;;;;31.17;17.17;;;10.50;74.40;;;;;;4254685;27;20039;-63
2022/03/30 00:03:32;;;;;;;30.42;15.75;;;10.50;74.20;;;;;;4257276;27;20761;-63
2022/03/30 00:05:34;;;;;;;33.72;17.75;;;10.60;74.20;;;;;;4258352;27;20079;-63
2022/03/30 00:07:37;;;;;;;31.83;14.50;;;10.60;73.90;;;;;;4259862;27;20111;-61
2022/03/30 00:09:38;;;;;;;33.40;16.00;;;10.60;73.80;;;;;;4257856;27;20050;-63
2022/03/30 00:11:40;;;;;;;28.63;13.93;;;10.70;73.80;;;;;;4254842;27;20071;-63
2022/03/30 00:13:42;;;;;;;41.47;19.25;;;10.70;74.30;;;;;;4242757;27;20110;-63
2022/03/30 00:15:44;;;;;;;65.63;28.42;;;10.70;74.20;;;;;;4258281;27;20077;-63
2022/03/30 00:17:46;;;;;;;38.30;20.73;;;10.70;74.30;;;;;;4255613;27;20959;-64
2022/03/30 00:19:48;;;;;;;43.08;20.15;;;10.80;74.00;;;;;;4257140;27;20106;-63
2022/03/30 00:21:50;;;;;;;40.65;18.67;;;10.70;74.40;;;;;;4257223;27;20109;-63
2022/03/30 00:23:52;;;;;;;42.40;18.92;;;10.70;74.50;;;;;;4260608;27;20074;-63
2022/03/30 00:25:54;;;;;;;42.97;20.27;;;10.70;74.50;;;;;;4257758;27;20047;-63
2022/03/30 00:27:56;;;;;;;33.13;18.02;;;10.70;74.70;;;;;;4255741;27;20085;-63
2022/03/30 00:29:58;;;;;;;38.78;18.60;;;10.70;74.60;;;;;;4255716;27;20158;-63
2022/03/30 00:31:59;;;;;;;26.48;16.65;;;10.70;75.20;;;;;;4258311;27;20066;-63
2022/03/30 00:34:02;;;;;;;33.30;14.60;;;10.60;75.30;;;;;;4256789;27;20051;-63
2022/03/30 00:36:04;;;;;;;28.42;14.10;;;10.70;75.30;;;;;;4257208;27;20060;-63
2022/03/30 00:38:06;;;;;;;28.45;16.08;;;10.60;75.70;;;;;;4254837;27;20773;-63
2022/03/30 00:40:11;;;;;;;35.97;18.63;;;10.60;76.00;;;;;;4257081;27;20055;-63
2022/03/30 00:42:18;;;;;;;68.95;31.38;;;10.60;75.90;;;;;;4259161;27;20061;-63
2022/03/30 00:44:19;;;;;;;55.60;25.08;;;10.60;75.70;;;;;;4256111;27;21150;-63
2022/03/30 00:46:25;;;;;;;33.78;17.35;;;10.70;75.50;;;;;;4241551;27;20056;-63
2022/03/30 00:48:27;;;;;;;26.73;14.35;;;10.70;75.80;;;;;;4257316;27;20089;-63
2022/03/30 00:50:29;;;;;;;23.33;14.85;;;10.60;76.00;;;;;;4255172;27;20833;-63
2022/03/30 00:52:31;;;;;;;36.95;15.45;;;10.60;75.80;;;;;;4251211;27;20125;-63
2022/03/30 00:54:34;;;;;;;27.33;14.07;;;10.60;76.00;;;;;;4249437;27;20141;-63
2022/03/30 00:56:38;;;;;;;24.00;12.93;;;10.60;75.50;;;;;;4256161;27;20154;-62
2022/03/30 00:58:40;;;;;;;27.10;14.23;;;10.70;75.00;;;;;;4256104;27;20051;-62
2022/03/30 01:00:42;;;;;;;33.80;14.23;;;10.70;74.40;;;;;;4256180;27;20679;-63
2022/03/30 01:02:46;;;;;;;37.00;16.60;;;10.70;74.10;;;;;;4256456;27;20074;-63
2022/03/30 01:04:49;;;;;;;35.42;14.43;;;10.70;74.10;;;;;;4256274;27;20670;-62
2022/03/30 01:06:51;;;;;;;41.28;17.35;;;10.80;73.90;;;;;;4256696;27;20799;-63
2022/03/30 01:08:53;;;;;;;33.42;15.30;;;10.90;73.90;;;;;;4257722;27;20175;-63
2022/03/30 01:10:55;;;;;;;30.52;14.48;;;10.90;74.10;;;;;;4243539;27;20927;-63
2022/03/30 01:12:57;;;;;;;26.20;13.93;;;10.80;74.50;;;;;;4258215;27;20127;-63
2022/03/30 01:15:00;;;;;;;41.35;19.30;;;10.80;74.50;;;;;;4255508;27;20039;-62
2022/03/30 01:17:02;;;;;;;34.70;16.15;;;10.80;74.50;;;;;;4257831;27;20170;-63
2022/03/30 01:19:09;;;;;;;31.58;17.25;;;10.80;73.70;;;;;;4255727;27;20639;-64
2022/03/30 01:21:10;;;;;;;33.83;14.77;;;10.80;73.30;;;;;;4256818;27;20173;-64
2022/03/30 01:23:12;;;;;;;28.42;13.82;;;10.90;73.00;;;;;;4256460;27;20090;-64
2022/03/30 01:25:14;;;;;;;35.08;14.95;;;10.90;73.30;;;;;;4257827;27;20073;-64
2022/03/30 01:27:16;;;;;;;26.25;15.23;;;10.80;73.70;;;;;;4257318;27;20880;-64
2022/03/30 01:34:00;;;;;;;23.67;13.48;;;10.80;73.20;;;;;;4253538;27;20322;-64
2022/03/30 01:36:02;;;;;;;27.88;13.88;;;10.90;73.30;;;;;;4257865;27;20062;-63
2022/03/30 01:38:04;;;;;;;26.67;13.32;;;10.90;72.90;;;;;;4255335;27;20125;-65
2022/03/30 01:40:06;;;;;;;20.30;12.90;;;10.90;73.10;;;;;;4255560;27;20055;-64
2022/03/30 01:42:09;;;;;;;31.00;14.50;;;10.80;73.10;;;;;;4256329;27;20070;-64
2022/03/30 01:44:11;;;;;;;27.50;13.80;;;10.80;73.40;;;;;;4256955;27;20087;-64
2022/03/30 01:46:13;;;;;;;27.88;14.93;;;10.80;73.60;;;;;;4259240;27;20869;-64
2022/03/30 01:48:15;;;;;;;23.00;13.50;;;10.80;74.20;;;;;;4257173;27;20062;-64
2022/03/30 01:50:17;;;;;;;24.05;14.15;;;10.80;75.30;;;;;;4255738;27;20059;-65
2022/03/30 01:52:19;;;;;;;29.27;12.60;;;10.70;74.50;;;;;;4255545;27;20059;-64
2022/03/30 01:54:24;;;;;;;25.77;13.13;;;10.70;74.80;;;;;;4257866;27;20148;-64
2022/03/30 01:56:25;;;;;;;26.80;14.65;;;10.70;74.80;;;;;;4253241;27;20133;-65
2022/03/30 01:58:28;;;;;;;33.28;14.85;;;10.70;75.30;;;;;;4256293;27;20090;-64
2022/03/30 02:00:30;;;;;;;26.35;13.90;;;10.70;75.80;;;;;;4256160;27;20803;-65
2022/03/30 02:02:32;;;;;;;25.83;14.13;;;10.70;75.80;;;;;;4257240;27;20097;-64
2022/03/30 02:04:40;;;;;;;28.40;14.32;;;10.60;75.60;;;;;;4256565;27;20059;-64
2022/03/30 02:06:41;;;;;;;29.58;13.77;;;10.60;75.40;;;;;;4253936;27;20144;-64
2022/03/30 02:08:43;;;;;;;23.45;13.18;;;10.50;75.20;;;;;;4253843;27;20758;-64
2022/03/30 02:10:45;;;;;;;30.58;14.23;;;10.60;75.10;;;;;;4256804;27;20059;-64
2022/03/30 02:12:47;;;;;;;33.65;14.68;;;10.60;76.10;;;;;;4256991;27;20146;-65
2022/03/30 02:14:51;;;;;;;28.95;17.23;;;10.60;75.90;;;;;;4256359;27;20666;-64
2022/03/30 02:16:53;;;;;;;27.90;13.88;;;10.60;75.90;;;;;;4239423;27;20102;-64
2022/03/30 02:18:55;;;;;;;38.38;14.93;;;10.60;75.80;;;;;;4255877;27;20166;-64
2022/03/30 02:20:57;;;;;;;30.40;14.40;;;10.60;75.80;;;;;;4256885;27;20098;-65
2022/03/30 02:22:59;;;;;;;36.83;16.55;;;10.60;75.90;;;;;;4255302;27;20159;-64
2022/03/30 02:25:01;;;;;;;24.05;16.48;;;10.60;75.90;;;;;;4240652;27;20063;-65
2022/03/30 02:27:03;;;;;;;30.75;17.27;;;10.60;75.90;;;;;;4249823;27;20174;-64
2022/03/30 02:29:06;;;;;;;25.80;14.70;;;10.60;76.40;;;;;;4257859;27;20112;-64
2022/03/30 02:31:08;;;;;;;32.50;16.05;;;10.60;76.20;;;;;;4255080;27;20148;-64
2022/03/30 02:33:10;;;;;;;29.80;16.08;;;10.50;76.10;;;;;;4254750;27;20055;-64
2022/03/30 02:35:13;;;;;;;31.02;14.80;;;10.50;76.60;;;;;;4252247;27;20059;-64
2022/03/30 02:37:16;;;;;;;26.35;14.75;;;10.50;77.00;;;;;;4254818;27;20128;-64
2022/03/30 02:39:18;;;;;;;30.88;14.07;;;10.40;77.20;;;;;;4257573;27;20147;-64
2022/03/30 02:41:20;;;;;;;31.58;16.98;;;10.40;77.10;;;;;;4255277;27;20098;-64
2022/03/30 02:43:22;;;;;;;42.95;27.35;;;10.40;76.70;;;;;;4255346;27;20120;-64
2022/03/30 02:45:24;;;;;;;32.60;16.23;;;10.40;76.80;;;;;;4257360;27;20062;-64
2022/03/30 02:49:47;;;;;;;36.08;15.75;;;10.50;76.80;;;;;;4256462;27;20051;-63
2022/03/30 02:51:51;;;;;;;31.83;14.23;;;10.50;76.60;;;;;;4256742;27;20129;-64
2022/03/30 02:53:54;;;;;;;29.27;13.88;;;10.50;76.30;;;;;;4256420;27;20144;-64
2022/03/30 02:55:56;;;;;;;31.90;14.02;;;10.50;76.30;;;;;;4252131;27;20090;-64
2022/03/30 02:57:57;;;;;;;33.20;13.98;;;10.50;76.50;;;;;;4257098;27;20129;-66
2022/03/30 02:59:59;;;;;;;26.02;12.45;;;10.50;76.60;;;;;;4255454;27;20182;-64
2022/03/30 03:02:01;;;;;;;25.08;12.95;;;10.50;76.60;;;;;;4256180;27;20055;-64
2022/03/30 03:04:09;;;;;;;30.15;12.18;;;10.50;76.10;;;;;;4251989;27;20063;-64
2022/03/30 03:06:11;;;;;;;24.92;12.13;;;10.50;75.70;;;;;;4257939;27;20124;-64
2022/03/30 03:08:13;;;;;;;21.50;11.27;;;10.60;75.20;;;;;;4257470;27;20090;-64
2022/03/30 03:10:14;;;;;;;29.77;12.05;;;10.60;75.10;;;;;;4255103;27;20148;-64
2022/03/30 03:12:16;;;;;;;20.92;12.95;;;10.60;74.90;;;;;;4254687;27;20124;-64
2022/03/30 03:14:18;;;;;;;27.00;12.50;;;10.70;74.60;;;;;;4253072;27;20114;-64
2022/03/30 03:16:20;;;;;;;22.13;12.25;;;10.60;74.40;;;;;;4255142;27;20959;-64
2022/03/30 03:18:22;;;;;;;24.40;12.02;;;10.60;74.20;;;;;;4257140;27;20083;-63
2022/03/30 03:20:25;;;;;;;27.15;14.00;;;10.60;74.30;;;;;;4252941;27;20930;-64
2022/03/30 03:22:26;;;;;;;32.42;12.57;;;10.70;74.30;;;;;;4260353;27;20055;-64
2022/03/30 03:24:28;;;;;;;32.17;12.32;;;10.70;74.00;;;;;;4259667;27;20055;-64
2022/03/30 03:26:30;;;;;;;28.55;12.40;;;10.70;74.20;;;;;;4260125;27;20044;-64
2022/03/30 03:28:32;;;;;;;26.50;12.60;;;10.70;74.00;;;;;;4258269;27;20056;-64
2022/03/30 03:30:34;;;;;;;23.42;12.73;;;10.80;74.00;;;;;;4254644;27;20173;-64
2022/03/30 03:32:36;;;;;;;27.17;13.38;;;10.70;74.00;;;;;;4261035;27;20116;-64
2022/03/30 03:34:38;;;;;;;25.42;13.18;;;10.80;73.80;;;;;;4257043;27;20090;-64
2022/03/30 03:36:39;;;;;;;28.75;12.43;;;10.80;73.70;;;;;;4261448;27;20095;-64
2022/03/30 03:38:41;;;;;;;29.05;13.13;;;10.80;73.60;;;;;;4257160;27;20983;-64
2022/03/30 03:40:43;;;;;;;30.35;13.00;;;10.80;73.60;;;;;;4256441;27;20060;-64
2022/03/30 03:42:45;;;;;;;26.55;13.57;;;10.90;73.60;;;;;;4258925;27;20090;-64
2022/03/30 03:44:46;;;;;;;22.25;12.48;;;10.90;73.70;;;;;;4258805;27;20097;-64
2022/03/30 03:46:49;;;;;;;28.15;13.02;;;10.90;73.80;;;;;;4257495;27;20098;-64
2022/03/30 03:48:51;;;;;;;30.83;13.65;;;10.90;73.80;;;;;;4257703;27;20129;-64
2022/03/30 03:50:53;;;;;;;23.05;12.40;;;10.90;74.00;;;;;;4260881;27;20090;-64
2022/03/30 03:52:55;;;;;;;26.52;12.25;;;10.80;74.10;;;;;;4257246;27;20154;-64
2022/03/30 03:54:58;;;;;;;27.35;13.73;;;10.90;74.00;;;;;;4257672;27;20162;-63
2022/03/30 03:57:00;;;;;;;27.48;12.82;;;10.90;74.20;;;;;;4258683;27;20055;-64
2022/03/30 03:59:01;;;;;;;31.23;11.25;;;11.00;73.90;;;;;;4256449;27;20891;-64
2022/03/30 04:01:03;;;;;;;24.45;12.48;;;11.00;74.10;;;;;;4256474;27;20150;-64
2022/03/30 04:03:05;;;;;;;27.08;12.02;;;11.00;74.10;;;;;;4258122;27;20761;-64
2022/03/30 04:05:09;;;;;;;37.75;13.05;;;11.00;74.50;;;;;;4259439;27;20882;-64
2022/03/30 04:07:11;;;;;;;30.85;12.57;;;11.00;74.90;;;;;;4256380;27;20069;-64
2022/03/30 04:09:12;;;;;;;27.23;14.18;;;10.90;75.00;;;;;;4260067;27;20140;-64
2022/03/30 04:11:14;;;;;;;31.23;14.82;;;10.80;75.50;;;;;;4257071;27;20090;-64
2022/03/30 04:13:16;;;;;;;28.65;14.35;;;10.70;76.20;;;;;;4257303;27;20102;-64
2022/03/30 04:15:18;;;;;;;25.75;12.88;;;10.60;76.90;;;;;;4257007;27;20078;-63
2022/03/30 04:17:20;;;;;;;20.83;12.15;;;10.50;77.80;;;;;;4257301;27;20232;-63
2022/03/30 04:19:22;;;;;;;25.98;12.45;;;10.50;78.30;;;;;;4259327;27;20082;-64
2022/03/30 04:21:23;;;;;;;34.03;12.27;;;10.50;78.40;;;;;;4256982;27;20063;-64
2022/03/30 04:23:25;;;;;;;24.45;13.05;;;10.60;78.70;;;;;;4258650;27;20055;-64
2022/03/30 04:25:27;;;;;;;27.80;11.82;;;10.50;79.10;;;;;;4257346;27;21445;-64
2022/03/30 04:27:29;;;;;;;24.48;12.43;;;10.50;79.80;;;;;;4258667;27;20514;-63
2022/03/30 04:29:30;;;;;;;22.30;11.15;;;10.40;79.80;;;;;;4249875;27;20952;-64
2022/03/30 04:31:33;;;;;;;26.63;11.75;;;10.50;80.10;;;;;;4254162;27;20143;-64
2022/03/30 04:33:35;;;;;;;24.40;12.02;;;10.50;80.70;;;;;;4252395;27;20113;-64
2022/03/30 04:35:37;;;;;;;29.02;11.55;;;10.50;81.00;;;;;;4259626;27;20055;-64
2022/03/30 04:37:39;;;;;;;29.23;11.98;;;10.50;81.70;;;;;;4257666;27;20658;-64
2022/03/30 04:39:41;;;;;;;23.08;11.90;;;10.50;82.30;;;;;;4257379;27;20158;-64
2022/03/30 04:41:43;;;;;;;27.02;12.18;;;10.50;83.10;;;;;;4256717;27;21684;-64
2022/03/30 04:43:44;;;;;;;33.15;13.07;;;10.50;83.90;;;;;;4260905;27;20150;-64
2022/03/30 04:45:46;;;;;;;23.40;11.63;;;10.40;84.00;;;;;;4256861;27;20163;-64
2022/03/30 04:47:49;;;;;;;27.38;12.00;;;10.40;84.30;;;;;;4253857;27;20742;-64
2022/03/30 04:49:51;;;;;;;24.50;11.75;;;10.40;84.90;;;;;;4253978;27;20056;-64
2022/03/30 04:51:53;;;;;;;26.55;11.88;;;10.40;85.60;;;;;;4255254;27;20158;-64
2022/03/30 04:53:55;;;;;;;33.83;11.90;;;10.30;86.10;;;;;;4256523;27;20201;-64
2022/03/30 04:55:57;;;;;;;38.22;11.50;;;10.30;86.50;;;;;;4254802;27;20907;-65
2022/03/30 04:57:59;;;;;;;27.92;12.65;;;10.30;87.20;;;;;;4255357;27;20087;-65
2022/03/30 05:00:01;;;;;;;24.73;11.02;;;10.30;88.20;;;;;;4256516;27;20062;-65
2022/03/30 05:02:03;;;;;;;26.88;10.95;;;10.20;89.10;;;;;;4257332;27;20654;-65
2022/03/30 05:04:06;;;;;;;38.05;11.23;;;10.20;90.10;;;;;;4234365;27;20060;-65
2022/03/30 05:06:08;;;;;;;33.20;12.23;;;10.10;91.20;;;;;;4253525;27;20161;-66
2022/03/30 05:08:09;;;;;;;27.02;11.35;;;10.00;91.80;;;;;;4256469;27;20974;-66
2022/03/30 05:10:13;;;;;;;30.52;11.32;;;10.00;91.90;;;;;;4239504;27;20093;-66
2022/03/30 05:12:15;;;;;;;32.55;10.85;;;10.00;92.00;;;;;;4254052;27;20107;-65
2022/03/30 05:14:17;;;;;;;39.53;10.93;;;10.00;92.40;;;;;;4252337;27;20175;-65
2022/03/30 05:16:19;;;;;;;33.47;11.40;;;10.00;92.70;;;;;;4253600;27;20792;-65
2022/03/30 05:18:22;;;;;;;31.65;11.70;;;9.90;93.20;;;;;;4249810;27;20055;-65
2022/03/30 05:20:26;;;;;;;34.65;11.02;;;9.90;93.50;;;;;;4255245;27;20973;-65
2022/03/30 05:22:28;;;;;;;25.30;11.32;;;10.00;93.70;;;;;;4252991;27;20095;-65
2022/03/30 05:24:31;;;;;;;28.05;12.18;;;9.90;93.90;;;;;;4255265;27;20059;-64
2022/03/30 05:26:32;;;;;;;22.45;10.55;;;10.00;94.30;;;;;;4255409;27;20060;-65
2022/03/30 05:28:38;;;;;;;26.83;11.35;;;9.90;95.10;;;;;;4256680;27;20156;-64
2022/03/30 05:30:40;;;;;;;32.67;11.90;;;9.90;95.70;;;;;;4254643;27;20059;-64
2022/03/30 05:32:45;;;;;;;24.35;10.65;;;9.90;95.90;;;;;;4252157;27;20055;-64
2022/03/30 05:34:47;;;;;;;34.15;11.75;;;9.90;96.30;;;;;;4253641;27;20055;-64
2022/03/30 05:36:49;;;;;;;25.02;11.10;;;9.80;96.80;;;;;;4253115;27;20094;-64
2022/03/30 05:38:51;;;;;;;32.00;12.82;;;9.80;97.10;;;;;;4256229;27;20116;-64
2022/03/30 05:40:53;;;;;;;24.25;10.73;;;9.80;97.40;;;;;;4252736;27;20103;-65
2022/03/30 05:42:54;;;;;;;27.83;10.57;;;9.70;98.60;;;;;;4250848;27;20105;-64
2022/03/30 05:44:56;;;;;;;19.55;10.02;;;9.70;98.60;;;;;;4252702;27;20158;-64
2022/03/30 05:46:58;;;;;;;33.95;10.75;;;9.70;99.60;;;;;;4251225;27;20908;-64
2022/03/30 05:49:00;;;;;;;32.40;12.10;;;9.70;99.90;;;;;;4251007;27;20055;-64
2022/03/30 05:51:02;;;;;;;30.23;10.32;;;9.70;99.90;;;;;;4253635;27;20086;-64
2022/03/30 05:53:03;;;;;;;43.75;12.40;;;9.70;99.90;;;;;;4255955;27;20094;-64
2022/03/30 05:55:06;;;;;;;39.70;12.45;;;9.60;99.90;;;;;;4252734;27;20134;-64
2022/03/30 05:57:08;;;;;;;28.98;10.32;;;9.50;99.90;;;;;;4253595;27;20915;-64
2022/03/30 05:59:11;;;;;;;28.52;10.65;;;9.50;99.90;;;;;;4251126;27;20060;-64
2022/03/30 06:01:13;;;;;;;24.63;11.32;;;9.50;99.90;;;;;;4253207;27;20097;-64
2022/03/30 06:03:15;;;;;;;26.10;10.55;;;9.50;99.90;;;;;;4254095;27;20056;-64
2022/03/30 06:05:17;;;;;;;31.58;12.38;;;9.50;99.90;;;;;;4255167;27;20060;-64
2022/03/30 06:07:19;;;;;;;30.10;11.20;;;9.60;99.90;;;;;;4253595;27;20796;-64
2022/03/30 06:09:21;;;;;;;33.55;11.50;;;9.50;99.90;;;;;;4252586;27;20911;-64
2022/03/30 06:11:40;;;;;;;25.92;11.20;;;9.60;99.90;;;;;;4253146;27;20094;-64
2022/03/30 06:13:42;;;;;;;32.15;12.88;;;9.60;99.90;;;;;;4256586;27;20059;-64
2022/03/30 06:15:43;;;;;;;29.08;12.10;;;9.60;99.90;;;;;;4247739;27;20059;-64
2022/03/30 06:17:56;;;;;;;35.67;12.18;;;9.50;99.90;;;;;;4253281;27;20876;-64
2022/03/30 06:19:59;;;;;;;28.42;12.18;;;9.50;99.90;;;;;;4255350;27;20170;-64
2022/03/30 06:22:05;;;;;;;28.75;12.35;;;9.60;99.90;;;;;;4254314;27;20059;-64
2022/03/30 06:24:12;;;;;;;32.03;11.95;;;9.60;99.90;;;;;;4254932;27;20060;-64
2022/03/30 06:26:14;;;;;;;26.35;11.35;;;9.70;99.90;;;;;;4254831;27;20059;-64
2022/03/30 06:28:16;;;;;;;37.45;12.50;;;9.70;99.90;;;;;;4250184;27;20887;-64
2022/03/30 06:30:18;;;;;;;29.27;11.57;;;9.70;99.90;;;;;;4255379;27;20842;-64
2022/03/30 06:32:19;;;;;;;30.67;11.65;;;9.70;99.90;;;;;;4256278;27;20146;-65
2022/03/30 06:34:21;;;;;;;28.30;11.40;;;9.70;99.90;;;;;;4257487;27;20317;-64
2022/03/30 06:36:23;;;;;;;30.00;11.25;;;9.70;99.90;;;;;;4257763;27;20914;-64
2022/03/30 06:38:25;;;;;;;35.35;11.10;;;9.70;99.90;;;;;;4255477;27;20055;-64
2022/03/30 06:40:27;;;;;;;29.40;11.20;;;9.70;99.90;;;;;;4257019;27;20154;-64
2022/03/30 06:42:28;;;;;;;25.80;11.68;;;9.70;99.90;;;;;;4256729;27;20146;-64
2022/03/30 06:44:32;;;;;;;26.33;11.20;;;9.70;99.90;;;;;;4254805;27;20091;-64
2022/03/30 06:46:37;;;;;;;29.40;11.68;;;9.70;99.90;;;;;;4255273;27;20090;-64
2022/03/30 06:48:40;;;;;;;30.27;12.30;;;9.80;99.90;;;;;;4255263;27;20768;-65
2022/03/30 06:50:42;;;;;;;32.75;11.75;;;9.70;99.90;;;;;;4261525;27;20216;-65
2022/03/30 06:52:46;;;;;;;35.15;11.70;;;9.70;99.90;;;;;;4233604;27;21201;-65
2022/03/30 06:54:47;;;;;;;29.13;11.70;;;9.70;99.90;;;;;;4255196;27;20095;-66
2022/03/30 06:56:49;;;;;;;28.98;11.90;;;9.70;99.90;;;;;;4258356;27;20059;-66
2022/03/30 06:58:51;;;;;;;35.88;12.38;;;9.70;99.90;;;;;;4253919;27;20192;-66
2022/03/30 07:00:53;;;;;;;28.55;12.75;;;9.80;99.90;;;;;;4256957;27;20058;-66
2022/03/30 07:02:55;;;;;;;38.13;14.27;;;9.80;99.90;;;;;;4261227;27;20051;-65
2022/03/30 07:04:57;;;;;;;36.22;14.75;;;9.80;99.90;;;;;;4255424;27;20059;-65
2022/03/30 07:11:39;;;;;;;31.33;12.45;;;9.70;99.90;;;;;;4258514;27;20091;-65
2022/03/30 07:13:41;;;;;;;32.03;13.85;;;9.70;99.90;;;;;;4256406;27;20162;-66
2022/03/30 07:15:43;;;;;;;29.40;12.77;;;9.70;99.90;;;;;;4260301;27;20043;-66
2022/03/30 07:17:50;;;;;;;99.10;22.30;;;9.70;99.90;;;;;;4258956;27;20085;-66
2022/03/30 07:19:52;;;;;;;100.45;20.58;;;9.70;99.90;;;;;;4258374;27;20131;-65
2022/03/30 07:21:54;;;;;;;41.88;15.43;;;9.70;99.90;;;;;;4259228;27;20148;-64
2022/03/30 07:23:55;;;;;;;32.65;12.85;;;9.70;99.90;;;;;;4258978;27;20150;-63
2022/03/30 07:26:00;;;;;;;29.58;13.70;;;9.70;99.90;;;;;;4253688;27;20090;-64
2022/03/30 07:28:03;;;;;;;34.67;14.88;;;9.70;99.90;;;;;;4259856;27;20912;-63
2022/03/30 07:30:06;;;;;;;28.38;13.23;;;9.70;99.90;;;;;;4255013;27;20102;-64
2022/03/30 07:32:08;;;;;;;91.65;17.73;;;9.70;99.90;;;;;;4254235;27;20063;-64
2022/03/30 07:34:09;;;;;;;68.28;17.08;;;9.70;99.90;;;;;;4259985;27;20058;-63
2022/03/30 07:36:11;;;;;;;43.63;13.80;;;9.80;99.90;;;;;;4242618;27;20879;-64
2022/03/30 07:38:17;;;;;;;27.67;13.18;;;9.70;99.90;;;;;;4256122;27;20065;-64
2022/03/30 07:40:21;;;;;;;36.03;12.25;;;9.80;99.90;;;;;;4256325;27;20065;-64
2022/03/30 07:42:24;;;;;;;30.05;13.65;;;9.80;99.90;;;;;;4258607;27;20056;-64
2022/03/30 07:44:26;;;;;;;31.67;13.30;;;9.80;99.90;;;;;;4255862;27;20055;-64
2022/03/30 07:46:28;;;;;;;28.92;14.95;;;9.80;99.90;;;;;;4258472;27;20059;-64
2022/03/30 07:48:30;;;;;;;37.72;15.00;;;9.80;99.90;;;;;;4258719;27;20168;-64
2022/03/30 07:50:32;;;;;;;32.80;13.68;;;9.80;99.90;;;;;;4257522;27;20055;-64
2022/03/30 07:52:34;;;;;;;38.90;13.55;;;9.70;99.90;;;;;;4258439;27;20272;-64
2022/03/30 07:54:36;;;;;;;31.30;13.55;;;9.80;99.90;;;;;;4244617;27;20079;-64
2022/03/30 07:56:38;;;;;;;25.23;13.43;;;9.80;99.90;;;;;;4256121;27;20055;-64
2022/03/30 07:58:40;;;;;;;27.52;12.70;;;9.70;99.90;;;;;;4255874;27;20684;-63
2022/03/30 08:00:42;;;;;;;31.77;15.00;;;9.70;99.90;;;;;;4260547;27;20827;-63
2022/03/30 08:02:45;;;;;;;29.45;12.90;;;9.70;99.90;;;;;;4254538;27;20055;-64
2022/03/30 08:04:48;;;;;;;36.03;14.88;;;9.70;99.90;;;;;;4259705;27;20101;-64
2022/03/30 08:06:50;;;;;;;35.20;14.02;;;9.70;99.90;;;;;;4258113;27;20060;-63
2022/03/30 08:08:52;;;;;;;32.95;12.75;;;9.70;99.90;;;;;;4256242;27;20161;-64
2022/03/30 08:10:54;;;;;;;23.63;11.88;;;9.70;99.90;;;;;;4255727;27;20090;-64
2022/03/30 08:12:57;;;;;;;25.73;12.68;;;9.80;99.90;;;;;;4262303;27;20055;-64
2022/03/30 08:14:59;;;;;;;26.38;12.35;;;9.80;99.90;;;;;;4258660;27;20191;-64
2022/03/30 08:17:00;;;;;;;32.97;13.77;;;9.90;99.90;;;;;;4250691;27;20056;-64
2022/03/30 08:19:02;;;;;;;32.38;11.38;;;9.80;99.90;;;;;;4258311;27;20063;-64
2022/03/30 08:23:24;;;;;;;31.95;12.07;;;9.90;99.90;;;;;;4251499;27;20109;-64
2022/03/30 08:25:26;;;;;;;29.02;11.65;;;9.90;99.90;;;;;;4257690;27;20055;-64
2022/03/30 08:27:30;;;;;;;26.60;11.75;;;9.90;99.90;;;;;;4255944;27;20063;-64
2022/03/30 08:29:32;;;;;;;22.73;10.77;;;9.90;99.90;;;;;;4261286;27;20059;-64
2022/03/30 08:31:35;;;;;;;24.38;10.80;;;9.90;99.90;;;;;;4257441;27;20058;-64
2022/03/30 08:33:36;;;;;;;29.17;10.52;;;9.90;99.90;;;;;;4153913;28;20050;-64
2022/03/30 08:35:39;;;;;;;29.85;11.25;;;9.90;99.90;;;;;;4150537;28;20101;-64
2022/03/30 08:37:41;;;;;;;35.78;10.75;;;10.00;99.90;;;;;;4154203;28;20919;-64
2022/03/30 08:39:43;;;;;;;28.92;10.95;;;10.00;99.90;;;;;;4155131;28;20152;-64
2022/03/30 08:41:46;;;;;;;31.48;11.20;;;10.10;99.90;;;;;;4152964;28;20062;-64
2022/03/30 08:43:48;;;;;;;23.02;10.27;;;10.10;99.90;;;;;;4151224;28;20122;-64
2022/03/30 08:45:50;;;;;;;25.58;9.73;;;10.10;99.90;;;;;;4153694;28;20097;-64
2022/03/30 08:47:52;;;;;;;35.95;11.77;;;10.10;99.90;;;;;;4151591;28;20921;-64
2022/03/30 08:49:54;;;;;;;34.92;10.95;;;10.10;99.90;;;;;;4154664;28;20124;-64
2022/03/30 08:51:58;;;;;;;23.73;9.60;;;10.10;99.90;;;;;;4153194;28;20568;-64
2022/03/30 08:53:59;;;;;;;24.52;10.43;;;10.10;99.90;;;;;;4153238;28;20158;-64
2022/03/30 08:56:01;;;;;;;38.03;10.00;;;10.10;99.90;;;;;;4155620;28;20062;-64
2022/03/30 08:58:03;;;;;;;22.92;9.70;;;10.10;99.90;;;;;;4158166;28;20148;-65
2022/03/30 09:00:07;;;;;;;30.27;10.93;;;10.20;99.90;;;;;;4156393;28;20116;-64
2022/03/30 09:02:10;;;;;;;21.75;9.32;;;10.20;99.90;;;;;;4146360;28;20169;-65
2022/03/30 09:04:14;;;;;;;31.98;9.15;;;10.20;99.90;;;;;;4154264;28;20250;-64
2022/03/30 09:06:28;;;;;;;29.23;9.05;;;10.10;99.90;;;;;;4156802;28;20659;-64
2022/03/30 09:08:30;;;;;;;24.30;9.13;;;10.10;99.90;;;;;;4153233;28;20071;-64
2022/03/30 09:10:32;;;;;;;36.53;9.57;;;10.10;99.90;;;;;;4151892;27;20063;-64
2022/03/30 09:12:35;;;;;;;23.85;9.07;;;10.20;99.90;;;;;;4152376;28;20065;-64
2022/03/30 09:14:42;;;;;;;22.98;8.30;;;10.20;99.90;;;;;;4157791;28;20158;-64
2022/03/30 09:16:46;;;;;;;34.50;9.98;;;10.20;99.90;;;;;;4150811;28;20067;-64
2022/03/30 09:19:05;;;;;;;28.55;9.13;;;10.20;99.90;;;;;;4155513;27;20070;-64
2022/03/30 09:21:07;;;;;;;29.70;8.77;;;10.10;99.90;;;;;;4152735;28;20061;-64
2022/03/30 09:23:11;;;;;;;32.42;10.57;;;10.10;99.90;;;;;;4156137;28;20210;-64
2022/03/30 09:25:18;;;;;;;16.00;7.78;;;10.10;99.90;;;;;;4157202;28;20062;-64
2022/03/30 09:27:23;;;;;;;31.98;9.73;;;10.20;99.90;;;;;;4152644;28;20064;-64
2022/03/30 09:29:29;;;;;;;29.00;8.90;;;10.20;99.90;;;;;;4155167;28;20760;-64
2022/03/30 09:31:52;;;;;;;26.17;7.85;;;10.30;99.90;;;;;;4163831;27;20097;-64
2022/03/30 09:34:01;;;;;;;28.35;8.93;;;10.30;99.90;;;;;;4255584;27;20055;-64
2022/03/30 09:36:03;;;;;;;28.02;9.43;;;10.30;99.90;;;;;;4256163;27;20182;-64
2022/03/30 09:38:12;;;;;;;25.15;8.18;;;10.40;99.90;;;;;;4254070;27;20066;-64
2022/03/30 09:40:14;;;;;;;27.95;9.02;;;10.50;99.90;;;;;;4254721;27;20055;-64
2022/03/30 09:42:18;;;;;;;27.90;9.52;;;10.50;99.90;;;;;;4258989;27;20055;-65
2022/03/30 09:44:21;;;;;;;24.02;9.48;;;10.60;99.90;;;;;;4255999;27;20051;-64
2022/03/30 09:46:23;;;;;;;19.80;9.07;;;10.60;99.90;;;;;;4256368;27;20904;-64
2022/03/30 09:48:26;;;;;;;17.05;8.15;;;10.70;99.90;;;;;;4255612;27;20740;-64
2022/03/30 09:50:28;;;;;;;29.10;8.50;;;10.80;99.90;;;;;;4254033;27;20105;-64
2022/03/30 09:52:31;;;;;;;21.25;8.68;;;10.80;99.90;;;;;;4254688;27;20055;-64
2022/03/30 09:54:49;;;;;;;22.67;8.48;;;10.90;99.90;;;;;;4255207;27;20154;-65
2022/03/30 09:56:51;;;;;;;21.95;8.00;;;11.00;99.90;;;;;;4245934;27;20063;-64
2022/03/30 09:59:00;;;;;;;27.40;8.63;;;11.00;99.90;;;;;;4258988;27;20166;-64
2022/03/30 10:01:17;;;;;;;23.70;8.45;;;10.90;99.90;;;;;;4258406;27;20097;-64
2022/03/30 10:03:19;;;;;;;20.05;9.65;;;11.00;99.90;;;;;;4257189;27;20097;-64
2022/03/30 10:05:22;;;;;;;29.50;10.23;;;11.10;99.90;;;;;;4257692;27;20059;-64
2022/03/30 10:07:24;;;;;;;21.05;7.80;;;11.20;99.90;;;;;;4255979;27;20174;-64
2022/03/30 10:09:26;;;;;;;25.63;8.93;;;11.20;99.90;;;;;;4253789;27;20059;-64
2022/03/30 10:11:29;;;;;;;27.70;9.98;;;11.30;99.90;;;;;;4251639;27;20100;-64
2022/03/30 10:13:31;;;;;;;17.13;8.02;;;11.40;99.90;;;;;;4253436;27;20066;-64
2022/03/30 10:15:33;;;;;;;30.75;10.25;;;11.50;99.90;;;;;;4256165;27;20090;-64
2022/03/30 10:17:36;;;;;;;28.88;9.77;;;11.70;99.90;;;;;;4255771;27;20055;-64
2022/03/30 10:19:40;;;;;;;30.77;8.93;;;11.90;99.90;;;;;;4241863;27;20078;-64
2022/03/30 10:22:00;;;;;;;21.05;7.65;;;12.10;99.90;;;;;;4250066;27;20117;-64
2022/03/30 10:24:20;;;;;;;20.65;7.93;;;12.20;99.90;;;;;;4251749;27;20178;-64
2022/03/30 10:26:43;;;;;;;18.40;8.15;;;12.30;99.90;;;;;;4259782;27;20070;-64
2022/03/30 10:28:56;;;;;;;21.60;8.25;;;12.40;99.50;;;;;;4233712;27;20133;-64
2022/03/30 10:30:58;;;;;;;23.27;7.90;;;12.40;99.50;;;;;;4255252;27;20067;-64
2022/03/30 10:33:02;;;;;;;19.90;8.18;;;12.30;98.90;;;;;;4251874;27;20059;-64
2022/03/30 10:35:13;;;;;;;18.08;7.68;;;12.20;99.00;;;;;;4262063;27;20055;-64
2022/03/30 10:37:22;;;;;;;24.98;7.72;;;12.10;99.90;;;;;;4249437;27;20063;-64
2022/03/30 10:39:27;;;;;;;17.90;7.78;;;12.00;99.90;;;;;;4255464;27;20178;-65
2022/03/30 10:41:56;;;;;;;22.63;7.80;;;11.80;99.90;;;;;;4237736;27;20099;-64